createdAt,value
2023-01-25T00:01:00.047Z,90.94
2023-01-25T00:04:37.167Z,90.91
2023-01-25T00:08:14.015Z,90.86
2023-01-25T00:11:51.233Z,90.81
2023-01-25T00:15:28.121Z,90.76
2023-01-25T00:19:11.976Z,90.71
2023-01-25T00:23:02.977Z,90.06
2023-01-25T00:26:54.028Z,87.29
2023-01-25T00:30:44.966Z,87.02
2023-01-25T00:34:36.914Z,86.80
2023-01-25T00:38:27.977Z,86.81
2023-01-25T00:42:19.003Z,87.42
2023-01-25T00:46:10.127Z,87.86
2023-01-25T00:50:01.010Z,88.05
2023-01-25T00:53:52.085Z,88.36
2023-01-25T00:57:42.973Z,88.70
2023-01-25T01:01:34.006Z,88.95
2023-01-25T01:05:24.888Z,89.12
2023-01-25T01:09:15.984Z,89.14
2023-01-25T01:13:10.919Z,89.20
2023-01-25T01:17:01.940Z,89.32
2023-01-25T01:20:45.857Z,88.93
2023-01-25T01:24:38.953Z,88.97
2023-01-25T01:28:29.879Z,89.19
2023-01-25T01:32:20.978Z,89.31
2023-01-25T01:36:11.860Z,89.35
2023-01-25T01:40:02.892Z,89.46
2023-01-25T01:43:53.907Z,89.51
2023-01-25T01:47:44.901Z,89.22
2023-01-25T01:51:35.843Z,89.01
2023-01-25T01:55:28.992Z,89.17
2023-01-25T01:59:19.784Z,89.25
2023-01-25T02:03:11.022Z,89.33
2023-01-25T02:07:01.785Z,89.56
2023-01-25T02:10:52.850Z,89.60
2023-01-25T02:14:43.852Z,89.76
2023-01-25T02:18:37.573Z,89.85
2023-01-25T02:22:29.779Z,89.94
2023-01-25T02:26:20.788Z,90.01
2023-01-25T02:30:11.781Z,90.00
2023-01-25T02:34:02.866Z,90.09
2023-01-25T02:37:55.777Z,89.78
2023-01-25T02:41:46.800Z,89.67
2023-01-25T02:45:37.771Z,89.95
2023-01-25T02:49:28.756Z,90.05
2023-01-25T02:53:19.858Z,90.09
2023-01-25T02:57:10.818Z,90.21
2023-01-25T03:00:54.903Z,90.36
2023-01-25T03:04:31.813Z,90.50
2023-01-25T03:08:08.842Z,90.52
2023-01-25T03:11:45.804Z,90.44
2023-01-25T03:15:23.856Z,90.47
2023-01-25T03:19:01.804Z,90.61
2023-01-25T03:22:52.724Z,90.42
2023-01-25T03:27:03.756Z,90.25
2023-01-25T03:30:58.779Z,90.13
2023-01-25T03:34:50.758Z,89.99
2023-01-25T03:38:41.763Z,90.16
2023-01-25T03:42:32.682Z,89.94
2023-01-25T03:46:23.678Z,89.95
2023-01-25T03:50:14.707Z,89.85
2023-01-25T03:54:05.676Z,89.83
2023-01-25T03:57:57.870Z,89.88
2023-01-25T04:01:41.817Z,89.82
2023-01-25T04:05:18.698Z,89.99
2023-01-25T04:08:56.765Z,90.00
2023-01-25T04:12:34.823Z,89.89
2023-01-25T04:16:12.712Z,89.89
2023-01-25T04:20:20.645Z,89.94
2023-01-25T04:23:57.781Z,90.07
2023-01-25T04:27:34.661Z,89.93
2023-01-25T04:31:13.851Z,89.90
2023-01-25T04:34:56.620Z,89.88
2023-01-25T04:38:33.703Z,89.75
2023-01-25T04:42:17.760Z,89.28
2023-01-25T04:45:48.797Z,88.85
2023-01-25T04:49:35.685Z,88.49
2023-01-25T04:53:05.743Z,88.27
2023-01-25T04:56:42.663Z,88.42
2023-01-25T05:00:19.738Z,88.55
2023-01-25T05:03:56.640Z,88.22
2023-01-25T05:07:42.669Z,88.34
2023-01-25T05:11:19.620Z,88.45
2023-01-25T05:15:05.758Z,88.55
2023-01-25T05:18:48.964Z,88.59
2023-01-25T05:22:46.668Z,88.55
2023-01-25T05:26:55.589Z,88.66
2023-01-25T05:30:52.568Z,88.68
2023-01-25T05:34:44.592Z,88.73
2023-01-25T05:38:35.600Z,87.97
2023-01-25T05:42:26.560Z,87.42
2023-01-25T05:46:10.717Z,87.67
2023-01-25T05:49:47.632Z,87.86
2023-01-25T05:53:30.692Z,87.87
2023-01-25T05:57:07.577Z,87.84
2023-01-25T06:00:44.629Z,87.82
2023-01-25T06:04:24.734Z,87.10
2023-01-25T06:08:01.702Z,86.89
2023-01-25T06:11:57.537Z,86.86
2023-01-25T06:15:34.644Z,87.35
2023-01-25T06:19:43.553Z,87.35
2023-01-25T06:23:33.651Z,86.99
2023-01-25T06:27:10.534Z,87.26
2023-01-25T06:30:47.555Z,87.06
2023-01-25T06:34:24.516Z,86.94
2023-01-25T06:38:01.566Z,86.97
2023-01-25T06:41:38.517Z,87.19
2023-01-25T06:45:15.615Z,87.15
2023-01-25T06:48:52.462Z,87.04
2023-01-25T06:52:43.416Z,87.04
2023-01-25T06:56:34.495Z,87.18
2023-01-25T07:00:11.879Z,86.97
2023-01-25T07:03:35.546Z,86.52
2023-01-25T07:06:59.246Z,86.25
2023-01-25T07:10:22.965Z,86.08
2023-01-25T07:13:46.880Z,86.02
2023-01-25T07:17:10.868Z,86.44
2023-01-25T07:20:34.848Z,86.68
2023-01-25T07:23:58.757Z,86.58
2023-01-25T07:27:22.719Z,86.52
2023-01-25T07:30:46.491Z,86.32
2023-01-25T07:34:10.270Z,86.38
2023-01-25T07:37:34.520Z,86.19
2023-01-25T07:40:58.155Z,85.72
2023-01-25T07:44:21.906Z,85.78
2023-01-25T07:47:48.057Z,85.85
2023-01-25T07:51:12.687Z,85.78
2023-01-25T07:54:36.506Z,85.47
2023-01-25T07:58:00.456Z,85.51
2023-01-25T08:01:24.175Z,85.45
2023-01-25T08:04:47.948Z,84.61
2023-01-25T08:08:13.380Z,84.47
2023-01-25T08:11:37.179Z,84.82
2023-01-25T08:15:00.918Z,84.78
2023-01-25T08:18:25.729Z,84.18
2023-01-25T08:21:49.812Z,84.53
2023-01-25T08:25:14.283Z,84.76
2023-01-25T08:28:37.975Z,84.57
2023-01-25T08:32:04.553Z,84.10
2023-01-25T08:35:28.591Z,83.77
2023-01-25T08:38:52.513Z,83.72
2023-01-25T08:42:16.371Z,83.43
2023-01-25T08:45:40.197Z,83.60
2023-01-25T08:49:04.041Z,83.48
2023-01-25T08:52:27.868Z,83.30
2023-01-25T08:55:51.538Z,83.35
2023-01-25T08:59:15.543Z,83.17
2023-01-25T09:02:39.369Z,83.45
2023-01-25T09:06:03.513Z,83.31
2023-01-25T09:09:30.003Z,83.11
2023-01-25T09:12:53.826Z,83.52
2023-01-25T09:16:17.535Z,83.75
2023-01-25T09:19:42.620Z,83.88
2023-01-25T09:23:06.386Z,83.08
2023-01-25T09:26:31.502Z,82.89
2023-01-25T09:30:02.150Z,82.58
2023-01-25T09:33:27.079Z,82.63
2023-01-25T09:36:50.826Z,82.70
2023-01-25T09:40:14.524Z,82.86
2023-01-25T09:43:38.176Z,82.80
2023-01-25T09:47:02.040Z,82.54
2023-01-25T09:50:25.749Z,82.18
2023-01-25T09:53:49.493Z,81.59
2023-01-25T09:57:13.576Z,81.89
2023-01-25T10:00:37.313Z,81.83
2023-01-25T10:04:01.065Z,82.22
2023-01-25T10:07:24.844Z,82.60
2023-01-25T10:10:48.939Z,82.75
2023-01-25T10:14:12.670Z,82.82
2023-01-25T10:17:36.413Z,82.81
2023-01-25T10:21:00.222Z,82.81
2023-01-25T10:24:23.959Z,81.19
2023-01-25T10:27:47.881Z,79.86
2023-01-25T10:31:11.708Z,80.57
2023-01-25T10:34:43.994Z,80.83
2023-01-25T10:38:14.489Z,80.12
2023-01-25T10:41:38.252Z,79.88
2023-01-25T10:45:01.920Z,80.21
2023-01-25T10:48:29.815Z,81.00
2023-01-25T10:51:53.877Z,81.60
2023-01-25T10:55:17.614Z,81.54
2023-01-25T10:58:41.341Z,82.18
2023-01-25T11:02:05.146Z,82.36
2023-01-25T11:05:28.852Z,82.59
2023-01-25T11:08:52.929Z,83.05
2023-01-25T11:12:16.613Z,83.21
2023-01-25T11:15:40.291Z,83.31
2023-01-25T11:19:04.082Z,83.26
2023-01-25T11:22:28.863Z,83.21
2023-01-25T11:25:52.549Z,83.35
2023-01-25T11:29:16.764Z,83.16
2023-01-25T11:32:40.530Z,83.44
2023-01-25T11:36:04.830Z,83.55
2023-01-25T11:39:28.462Z,83.61
2023-01-25T11:42:52.168Z,82.65
2023-01-25T11:46:15.968Z,82.28
2023-01-25T11:49:41.642Z,82.58
2023-01-25T11:53:05.420Z,82.49
2023-01-25T11:56:29.233Z,82.68
2023-01-25T11:59:54.425Z,83.00
2023-01-25T12:03:18.257Z,83.03
2023-01-25T12:06:42.147Z,83.12
2023-01-25T12:10:05.873Z,83.19
2023-01-25T12:13:29.779Z,82.40
2023-01-25T12:16:53.529Z,81.90
2023-01-25T12:20:17.208Z,81.48
2023-01-25T12:23:40.869Z,81.47
2023-01-25T12:27:04.549Z,81.88
2023-01-25T12:30:30.192Z,81.95
2023-01-25T12:33:54.043Z,81.67
2023-01-25T12:37:18.865Z,81.44
2023-01-25T12:40:42.520Z,81.59
2023-01-25T12:44:06.307Z,81.76
2023-01-25T12:47:30.280Z,82.06
2023-01-25T12:50:54.000Z,82.29
2023-01-25T12:54:17.702Z,81.68
2023-01-25T12:57:41.821Z,81.43
2023-01-25T13:01:05.928Z,80.70
2023-01-25T13:04:29.721Z,81.20
2023-01-25T13:07:54.681Z,81.34
2023-01-25T13:11:19.397Z,81.52
2023-01-25T13:14:43.103Z,81.74
2023-01-25T13:18:06.953Z,82.31
2023-01-25T13:21:30.649Z,82.76
2023-01-25T13:24:54.288Z,82.48
2023-01-25T13:28:18.103Z,82.66
2023-01-25T13:31:51.689Z,82.57
2023-01-25T13:35:16.564Z,82.34
2023-01-25T13:38:40.243Z,82.31
2023-01-25T13:42:04.025Z,82.00
2023-01-25T13:45:27.859Z,82.07
2023-01-25T13:48:51.761Z,82.11
2023-01-25T13:52:15.512Z,82.05
2023-01-25T13:55:39.194Z,81.59
2023-01-25T13:59:03.568Z,81.54
2023-01-25T14:02:27.354Z,81.78
2023-01-25T14:05:51.183Z,81.79
2023-01-25T14:09:17.316Z,81.56
2023-01-25T14:12:41.188Z,81.02
2023-01-25T14:16:05.083Z,80.67
2023-01-25T14:19:30.003Z,80.59
2023-01-25T14:22:54.075Z,80.76
2023-01-25T14:26:17.832Z,81.03
2023-01-25T14:29:41.579Z,80.42
2023-01-25T14:33:12.867Z,80.38
2023-01-25T14:36:50.093Z,80.11
2023-01-25T14:40:33.899Z,79.60
2023-01-25T14:44:03.924Z,79.94
2023-01-25T14:47:58.309Z,80.12
2023-01-25T14:51:28.955Z,80.35
2023-01-25T14:55:12.802Z,80.52
2023-01-25T14:58:43.180Z,80.70
2023-01-25T15:02:28.858Z,80.79
2023-01-25T15:06:05.922Z,80.81
2023-01-25T15:09:45.874Z,80.63
2023-01-25T15:13:23.889Z,80.49
2023-01-25T15:17:02.815Z,80.13
2023-01-25T15:20:48.717Z,80.45
2023-01-25T15:24:42.393Z,80.85
2023-01-25T15:28:35.711Z,81.28
2023-01-25T15:32:27.901Z,81.47
2023-01-25T15:36:11.870Z,81.58
2023-01-25T15:39:48.741Z,81.69
2023-01-25T15:43:28.188Z,81.72
2023-01-25T15:47:04.657Z,81.73
2023-01-25T15:50:42.877Z,81.76
2023-01-25T15:54:19.697Z,81.79
2023-01-25T15:57:57.407Z,81.80
2023-01-25T16:01:33.771Z,81.82
2023-01-25T16:05:10.753Z,81.83
2023-01-25T16:08:47.914Z,81.85
2023-01-25T16:12:25.699Z,81.85
2023-01-25T16:16:02.640Z,81.86
2023-01-25T16:19:46.644Z,81.83
2023-01-25T16:23:40.651Z,81.83
2023-01-25T16:27:28.018Z,81.82
2023-01-25T16:31:07.719Z,81.79
2023-01-25T16:34:44.800Z,81.78
2023-01-25T16:38:21.653Z,81.77
2023-01-25T16:41:58.887Z,81.73
2023-01-25T16:45:35.669Z,81.68
2023-01-25T16:49:12.761Z,81.47
2023-01-25T16:52:49.745Z,81.34
2023-01-25T16:56:26.973Z,81.38
2023-01-25T17:00:03.620Z,81.45
2023-01-25T17:03:40.803Z,81.51
2023-01-25T17:07:18.713Z,81.53
2023-01-25T17:10:57.476Z,81.44
2023-01-25T17:14:41.822Z,81.53
2023-01-25T17:18:11.813Z,81.80
2023-01-25T17:22:03.648Z,82.04
2023-01-25T17:25:54.674Z,82.64
2023-01-25T17:29:45.579Z,83.15
2023-01-25T17:33:16.557Z,83.54
2023-01-25T17:37:00.544Z,83.77
2023-01-25T17:40:30.905Z,83.80
2023-01-25T17:44:14.546Z,83.89
2023-01-25T17:48:07.589Z,83.83
2023-01-25T17:51:58.556Z,83.98
2023-01-25T17:55:49.540Z,84.20
2023-01-25T17:59:40.527Z,84.44
2023-01-25T18:03:33.945Z,84.34
2023-01-25T18:07:25.535Z,84.38
2023-01-25T18:11:17.491Z,84.29
2023-01-25T18:15:08.973Z,84.21
2023-01-25T18:18:59.493Z,84.14
2023-01-25T18:22:50.488Z,84.12
2023-01-25T18:26:41.456Z,84.08
2023-01-25T18:30:32.887Z,84.03
2023-01-25T18:34:03.080Z,83.99
2023-01-25T18:37:50.468Z,83.96
2023-01-25T18:41:23.094Z,83.93
2023-01-25T18:45:06.598Z,83.86
2023-01-25T18:48:36.861Z,83.76
2023-01-25T18:52:20.552Z,83.72
2023-01-25T18:55:50.861Z,83.66
2023-01-25T18:59:34.508Z,83.46
2023-01-25T19:03:04.885Z,83.33
2023-01-25T19:06:48.420Z,83.35
2023-01-25T19:10:18.714Z,83.40
2023-01-25T19:14:05.710Z,83.44
2023-01-25T19:17:35.752Z,83.47
2023-01-25T19:21:19.400Z,83.53
2023-01-25T19:25:12.666Z,83.60
2023-01-25T19:29:05.419Z,83.63
2023-01-25T19:32:57.378Z,83.65
2023-01-25T19:36:52.675Z,83.72
2023-01-25T19:40:43.382Z,83.90
2023-01-25T19:44:34.370Z,83.74
2023-01-25T19:48:25.354Z,83.64
2023-01-25T19:52:24.385Z,84.02
2023-01-25T19:56:16.168Z,84.24
2023-01-25T20:00:07.580Z,84.20
2023-01-25T20:03:58.479Z,84.18
2023-01-25T20:07:49.334Z,84.20
2023-01-25T20:11:40.420Z,84.10
2023-01-25T20:15:31.384Z,84.11
2023-01-25T20:19:15.513Z,84.18
2023-01-25T20:22:52.394Z,84.26
2023-01-25T20:26:29.457Z,84.29
2023-01-25T20:30:06.413Z,84.30
2023-01-25T20:33:43.491Z,84.36
2023-01-25T20:37:21.266Z,84.39
2023-01-25T20:40:58.457Z,84.39
2023-01-25T20:44:35.419Z,84.41
2023-01-25T20:48:12.406Z,84.37
2023-01-25T20:51:50.620Z,84.33
2023-01-25T20:55:34.700Z,84.30
2023-01-25T20:59:11.267Z,84.22
2023-01-25T21:02:49.391Z,83.93
2023-01-25T21:06:27.410Z,83.90
2023-01-25T21:10:06.406Z,83.86
2023-01-25T21:13:47.719Z,83.86
2023-01-25T21:17:28.571Z,83.87
2023-01-25T21:21:05.284Z,83.87
2023-01-25T21:24:56.225Z,83.86
2023-01-25T21:28:47.287Z,83.84
2023-01-25T21:32:38.303Z,83.83
2023-01-25T21:36:29.215Z,83.80
2023-01-25T21:40:21.164Z,83.79
2023-01-25T21:44:30.187Z,83.75
2023-01-25T21:48:41.166Z,83.70
2023-01-25T21:52:36.231Z,83.60
2023-01-25T21:56:27.203Z,83.45
2023-01-25T22:00:19.192Z,83.35
2023-01-25T22:04:10.254Z,83.24
2023-01-25T22:08:03.281Z,83.08
2023-01-25T22:11:49.818Z,82.87
2023-01-25T22:15:26.239Z,82.32
2023-01-25T22:19:05.288Z,82.33
2023-01-25T22:22:42.441Z,82.29
2023-01-25T22:26:33.464Z,82.14
2023-01-25T22:30:27.612Z,82.09
2023-01-25T22:34:25.295Z,82.03
2023-01-25T22:38:16.207Z,81.96
2023-01-25T22:41:46.825Z,81.94
2023-01-25T22:45:30.200Z,81.91
2023-01-25T22:49:02.295Z,81.73
2023-01-25T22:52:55.088Z,81.65
2023-01-25T22:56:46.082Z,81.61
2023-01-25T23:00:37.140Z,80.73
2023-01-25T23:04:30.099Z,80.64
2023-01-25T23:08:21.134Z,80.58
2023-01-25T23:12:15.052Z,80.42
2023-01-25T23:16:08.369Z,80.38
2023-01-25T23:19:59.072Z,80.39
2023-01-25T23:23:53.073Z,80.38
2023-01-25T23:27:44.038Z,80.03
2023-01-25T23:31:35.157Z,80.15
2023-01-25T23:35:26.010Z,80.07
2023-01-25T23:39:17.023Z,79.95
2023-01-25T23:43:08.042Z,79.26
2023-01-25T23:46:59.167Z,78.61
2023-01-25T23:50:43.124Z,78.86
2023-01-25T23:54:23.065Z,78.97
2023-01-25T23:58:01.155Z,79.04
